Time;durP1;ratioP1;P1;durP2;ratioP2;P2;SDS_P1;SDS_P2;PMS_P1;PMS_P2;Temp;Humidity;BMP_temperature;BMP_pressure;BME280_temperature;BME280_humidity;BME280_pressure;Samples;Min_cycle;Max_cycle;Signal;HPM_P1;HPM_P2
2022/07/19 00:00:09;;;;;;;16.55;9.90;;;;;;;;;;5075635;28;20081;-78
2022/07/19 00:02:35;;;;;;;16.23;9.35;;;;;;;;;;5075941;28;20099;-77
2022/07/19 00:05:01;;;;;;;16.95;9.23;;;;;;;;;;5073365;28;20035;-77
2022/07/19 00:07:27;;;;;;;16.10;9.68;;;;;;;;;;5073843;28;20100;-77
2022/07/19 00:09:53;;;;;;;12.57;8.57;;;;;;;;;;5074102;28;20031;-78
2022/07/19 00:12:20;;;;;;;14.60;8.77;;;;;;;;;;5072790;28;20099;-78
2022/07/19 00:14:45;;;;;;;14.20;9.65;;;;;;;;;;5074079;28;20024;-78
2022/07/19 00:17:11;;;;;;;19.77;9.88;;;;;;;;;;5072740;28;20444;-78
2022/07/19 00:19:37;;;;;;;14.77;9.30;;;;;;;;;;5073864;28;20029;-78
2022/07/19 00:22:04;;;;;;;18.48;9.77;;;;;;;;;;5073662;28;20028;-78
2022/07/19 00:24:30;;;;;;;19.65;8.35;;;;;;;;;;5073954;28;20385;-78
2022/07/19 00:26:55;;;;;;;15.48;9.57;;;;;;;;;;5073671;28;20024;-77
2022/07/19 00:29:21;;;;;;;13.82;8.90;;;;;;;;;;5075990;28;20037;-77
2022/07/19 00:31:47;;;;;;;16.30;8.68;;;;;;;;;;5081590;28;20500;-76
2022/07/19 00:34:13;;;;;;;14.02;8.38;;;;;;;;;;5080633;28;20039;-77
2022/07/19 00:36:39;;;;;;;16.73;9.13;;;;;;;;;;5080892;28;20107;-77
2022/07/19 00:39:05;;;;;;;13.75;8.40;;;;;;;;;;5084991;28;20040;-77
2022/07/19 00:41:31;;;;;;;16.40;8.65;;;;;;;;;;5075482;28;20025;-77
2022/07/19 00:43:58;;;;;;;19.08;8.40;;;;;;;;;;5072734;28;20029;-77
2022/07/19 00:46:23;;;;;;;14.02;8.43;;;;;;;;;;5072655;28;20070;-77
2022/07/19 00:48:50;;;;;;;15.75;8.88;;;;;;;;;;5073096;28;20389;-76
2022/07/19 00:51:17;;;;;;;13.88;8.32;;;;;;;;;;5072849;28;20025;-75
2022/07/19 00:53:44;;;;;;;13.00;8.55;;;;;;;;;;5072892;28;20465;-77
2022/07/19 00:56:12;;;;;;;15.48;9.13;;;;;;;;;;5071891;28;20024;-78
2022/07/19 00:58:39;;;;;;;14.10;8.80;;;;;;;;;;5074113;28;20032;-78
2022/07/19 01:01:06;;;;;;;14.45;8.80;;;;;;;;;;5085425;28;20111;-80
2022/07/19 01:03:34;;;;;;;15.93;8.88;;;;;;;;;;5081184;28;20392;-78
2022/07/19 01:06:00;;;;;;;14.90;8.65;;;;;;;;;;5073467;28;20112;-77
2022/07/19 01:08:26;;;;;;;15.00;8.85;;;;;;;;;;5073723;28;20075;-77
2022/07/19 01:10:52;;;;;;;16.80;8.63;;;;;;;;;;5073594;28;20024;-77
2022/07/19 01:13:18;;;;;;;15.43;8.68;;;;;;;;;;5072457;28;20056;-77
2022/07/19 01:15:44;;;;;;;15.95;9.00;;;;;;;;;;5072408;28;20028;-77
2022/07/19 01:18:10;;;;;;;16.38;8.98;;;;;;;;;;5072212;28;20120;-77
2022/07/19 01:20:37;;;;;;;17.83;9.18;;;;;;;;;;5074505;28;20049;-77
2022/07/19 01:23:03;;;;;;;16.15;8.60;;;;;;;;;;5080660;28;20088;-77
2022/07/19 01:25:30;;;;;;;11.82;8.35;;;;;;;;;;5073735;28;20078;-78
2022/07/19 01:27:56;;;;;;;13.63;8.68;;;;;;;;;;5074309;28;20450;-78
2022/07/19 01:30:24;;;;;;;18.42;8.88;;;;;;;;;;5076417;28;20025;-77
2022/07/19 01:32:51;;;;;;;14.93;8.75;;;;;;;;;;5071600;28;20055;-77
2022/07/19 01:35:18;;;;;;;13.13;8.32;;;;;;;;;;5079439;28;20028;-77
2022/07/19 01:37:44;;;;;;;14.68;8.77;;;;;;;;;;5076834;28;20024;-77
2022/07/19 01:40:11;;;;;;;15.05;7.97;;;;;;;;;;5087099;28;20026;-80
2022/07/19 01:42:37;;;;;;;16.45;8.55;;;;;;;;;;5076911;28;20086;-75
2022/07/19 01:45:04;;;;;;;16.70;9.02;;;;;;;;;;5073940;28;20028;-78
2022/07/19 01:47:30;;;;;;;13.95;8.75;;;;;;;;;;5078010;28;20028;-79
2022/07/19 01:49:56;;;;;;;15.00;8.35;;;;;;;;;;5081365;28;20024;-79
2022/07/19 01:52:22;;;;;;;14.85;8.80;;;;;;;;;;5080731;28;20497;-78
2022/07/19 01:54:48;;;;;;;14.73;9.57;;;;;;;;;;5073700;28;20039;-78
2022/07/19 01:57:14;;;;;;;18.88;9.50;;;;;;;;;;5072682;28;20035;-78
2022/07/19 01:59:40;;;;;;;14.43;9.05;;;;;;;;;;5072954;28;20036;-78
2022/07/19 02:02:07;;;;;;;19.88;8.68;;;;;;;;;;5072805;28;20032;-79
2022/07/19 02:04:33;;;;;;;17.42;9.23;;;;;;;;;;5072288;28;20074;-78
2022/07/19 02:06:58;;;;;;;17.48;9.32;;;;;;;;;;5072587;28;20020;-79
2022/07/19 02:09:25;;;;;;;18.08;9.30;;;;;;;;;;5073059;28;20397;-78
2022/07/19 02:11:51;;;;;;;12.80;8.73;;;;;;;;;;5073570;28;20028;-77
2022/07/19 02:14:17;;;;;;;17.77;9.05;;;;;;;;;;5073877;28;20056;-79
2022/07/19 02:16:43;;;;;;;15.20;9.45;;;;;;;;;;5072617;28;20035;-78
2022/07/19 02:19:09;;;;;;;17.85;9.07;;;;;;;;;;5073686;28;20029;-78
2022/07/19 02:21:36;;;;;;;15.02;9.23;;;;;;;;;;5072755;28;20381;-77
2022/07/19 02:24:02;;;;;;;17.80;9.18;;;;;;;;;;5072909;28;20358;-76
2022/07/19 02:26:28;;;;;;;15.57;8.88;;;;;;;;;;5072546;28;20027;-78
2022/07/19 02:28:54;;;;;;;16.10;9.00;;;;;;;;;;5072166;28;20048;-77
2022/07/19 02:31:20;;;;;;;18.88;8.70;;;;;;;;;;5072348;28;20382;-77
2022/07/19 02:33:46;;;;;;;18.77;9.13;;;;;;;;;;5072311;28;20028;-77
2022/07/19 02:36:12;;;;;;;19.02;8.93;;;;;;;;;;5072270;28;20542;-76
2022/07/19 02:38:38;;;;;;;15.70;9.40;;;;;;;;;;5072438;28;20068;-77
2022/07/19 02:41:04;;;;;;;16.70;9.93;;;;;;;;;;5071209;28;20028;-78
2022/07/19 02:43:30;;;;;;;17.40;9.38;;;;;;;;;;5072758;28;20373;-77
2022/07/19 02:45:56;;;;;;;18.23;9.65;;;;;;;;;;5071907;28;20488;-75
2022/07/19 02:48:22;;;;;;;18.00;9.70;;;;;;;;;;5072318;28;20024;-77
2022/07/19 02:50:48;;;;;;;16.00;9.57;;;;;;;;;;5072905;28;20095;-77
2022/07/19 02:53:14;;;;;;;16.40;9.18;;;;;;;;;;5072085;28;20496;-77
2022/07/19 02:55:40;;;;;;;15.13;9.27;;;;;;;;;;5075917;28;20032;-76
2022/07/19 02:58:06;;;;;;;17.63;9.77;;;;;;;;;;5088396;28;20028;-78
2022/07/19 03:00:32;;;;;;;16.60;9.65;;;;;;;;;;5075636;28;20099;-79
2022/07/19 03:03:43;;;;;;;18.13;9.18;;;;;;;;;;5072557;28;20077;-78
2022/07/19 03:05:45;;;;;;;15.68;9.60;;;;;;;;;;5072400;28;20386;-77
2022/07/19 03:08:11;;;;;;;15.77;9.48;;;;;;;;;;5076683;28;20056;-77
2022/07/19 03:10:38;;;;;;;15.73;9.93;;;;;;;;;;5082573;28;20117;-76
2022/07/19 03:13:04;;;;;;;14.63;9.13;;;;;;;;;;5093532;28;20028;-76
2022/07/19 03:15:30;;;;;;;16.90;9.45;;;;;;;;;;5098488;28;20032;-75
2022/07/19 03:17:56;;;;;;;15.57;9.73;;;;;;;;;;5099981;28;20056;-76
2022/07/19 03:20:22;;;;;;;15.68;9.73;;;;;;;;;;5100620;28;20021;-76
2022/07/19 03:22:48;;;;;;;16.88;10.50;;;;;;;;;;5082292;28;20028;-77
2022/07/19 03:25:14;;;;;;;15.40;9.23;;;;;;;;;;5084144;28;20036;-77
2022/07/19 03:27:40;;;;;;;16.38;9.98;;;;;;;;;;5080995;28;20028;-77
2022/07/19 03:30:06;;;;;;;20.50;12.20;;;;;;;;;;5078192;28;20074;-77
2022/07/19 03:32:33;;;;;;;19.25;10.35;;;;;;;;;;5078074;28;20081;-77
2022/07/19 03:34:59;;;;;;;19.80;10.48;;;;;;;;;;5076826;28;20094;-77
2022/07/19 03:37:25;;;;;;;16.33;10.30;;;;;;;;;;5073808;28;20436;-77
2022/07/19 03:39:51;;;;;;;20.25;10.80;;;;;;;;;;5076997;28;20063;-77
2022/07/19 03:42:17;;;;;;;16.77;10.57;;;;;;;;;;5080764;28;20031;-76
2022/07/19 03:44:43;;;;;;;18.23;10.23;;;;;;;;;;5078888;28;20025;-77
2022/07/19 03:47:09;;;;;;;18.88;10.57;;;;;;;;;;5081890;28;20378;-76
2022/07/19 03:49:35;;;;;;;19.08;10.88;;;;;;;;;;5077433;28;20029;-78
2022/07/19 03:52:01;;;;;;;18.13;10.55;;;;;;;;;;5078671;28;20020;-76
2022/07/19 03:54:27;;;;;;;17.98;10.23;;;;;;;;;;5079108;28;20032;-77
2022/07/19 03:56:55;;;;;;;18.13;10.05;;;;;;;;;;5078931;28;20037;-77
2022/07/19 03:59:22;;;;;;;19.55;10.98;;;;;;;;;;5076088;28;20033;-78
2022/07/19 04:01:48;;;;;;;19.70;10.57;;;;;;;;;;5082582;28;20384;-78
2022/07/19 04:04:14;;;;;;;17.58;10.70;;;;;;;;;;5077671;28;20032;-78
2022/07/19 04:06:40;;;;;;;17.67;10.38;;;;;;;;;;5075375;28;20089;-78
2022/07/19 04:09:06;;;;;;;20.23;10.23;;;;;;;;;;5073849;28;20024;-77
2022/07/19 04:11:32;;;;;;;19.80;10.68;;;;;;;;;;5075022;28;20029;-78
2022/07/19 04:13:58;;;;;;;18.52;10.57;;;;;;;;;;5075726;28;20027;-76
2022/07/19 04:16:24;;;;;;;15.55;10.32;;;;;;;;;;5075325;28;20024;-76
2022/07/19 04:18:50;;;;;;;17.52;10.00;;;;;;;;;;5075639;28;20409;-77
2022/07/19 04:21:16;;;;;;;21.70;10.65;;;;;;;;;;5076340;28;20071;-76
2022/07/19 04:23:42;;;;;;;20.17;11.07;;;;;;;;;;5085319;28;20103;-78
2022/07/19 04:26:08;;;;;;;17.55;9.90;;;;;;;;;;5075426;28;20523;-77
2022/07/19 04:28:33;;;;;;;18.60;9.88;;;;;;;;;;5075944;28;20028;-77
2022/07/19 04:30:59;;;;;;;18.17;10.25;;;;;;;;;;5079053;28;20125;-77
2022/07/19 04:33:26;;;;;;;20.60;10.82;;;;;;;;;;5076420;28;20385;-77
2022/07/19 04:35:53;;;;;;;19.75;11.23;;;;;;;;;;5085305;28;20041;-78
2022/07/19 04:38:19;;;;;;;17.33;9.77;;;;;;;;;;5086184;28;20024;-80
2022/07/19 04:40:45;;;;;;;19.67;10.93;;;;;;;;;;5078995;28;20024;-78
2022/07/19 04:43:11;;;;;;;17.55;10.57;;;;;;;;;;5073606;28;20055;-78
2022/07/19 04:45:39;;;;;;;20.27;11.25;;;;;;;;;;5076006;28;20036;-78
2022/07/19 04:48:05;;;;;;;21.17;10.25;;;;;;;;;;5076845;28;20392;-78
2022/07/19 04:50:31;;;;;;;17.88;10.57;;;;;;;;;;5077789;28;20507;-78
2022/07/19 04:52:57;;;;;;;19.70;10.85;;;;;;;;;;5079755;28;20025;-78
2022/07/19 04:55:23;;;;;;;24.02;11.02;;;;;;;;;;5088064;28;20032;-75
2022/07/19 04:57:49;;;;;;;18.30;10.80;;;;;;;;;;5088183;28;20044;-77
2022/07/19 05:00:16;;;;;;;19.30;10.82;;;;;;;;;;5088755;28;20100;-78
2022/07/19 05:02:42;;;;;;;16.83;10.50;;;;;;;;;;5088507;28;20074;-77
2022/07/19 05:05:08;;;;;;;17.83;10.07;;;;;;;;;;5091475;28;20027;-77
2022/07/19 05:07:34;;;;;;;16.15;10.70;;;;;;;;;;5092778;28;20025;-77
2022/07/19 05:10:00;;;;;;;17.77;10.30;;;;;;;;;;5086574;28;20035;-77
2022/07/19 05:12:26;;;;;;;20.08;10.10;;;;;;;;;;5086633;28;20013;-76
2022/07/19 05:14:52;;;;;;;18.00;10.60;;;;;;;;;;5085693;28;20040;-77
2022/07/19 05:17:17;;;;;;;16.42;10.68;;;;;;;;;;5108278;22;20459;-77
2022/07/19 05:19:43;;;;;;;19.10;10.82;;;;;;;;;;5045739;28;20037;-77
2022/07/19 05:22:09;;;;;;;23.48;10.98;;;;;;;;;;5059429;28;20025;-77
2022/07/19 05:24:35;;;;;;;17.83;10.90;;;;;;;;;;5056802;28;20079;-78
2022/07/19 05:27:01;;;;;;;19.25;10.10;;;;;;;;;;5040919;28;20029;-77
2022/07/19 05:29:27;;;;;;;20.02;11.63;;;;;;;;;;5058714;28;20334;-77
2022/07/19 05:31:53;;;;;;;21.65;11.95;;;;;;;;;;5070722;28;20029;-75
2022/07/19 05:34:19;;;;;;;21.30;10.40;;;;;;;;;;5068629;28;20029;-77
2022/07/19 05:36:45;;;;;;;20.92;11.40;;;;;;;;;;5058943;28;20025;-77
2022/07/19 05:39:11;;;;;;;18.20;10.82;;;;;;;;;;5057758;28;20025;-78
2022/07/19 05:41:37;;;;;;;16.45;10.13;;;;;;;;;;5059179;28;20025;-77
2022/07/19 05:44:03;;;;;;;25.80;11.07;;;;;;;;;;5065832;28;20025;-77
2022/07/19 05:46:29;;;;;;;18.33;10.90;;;;;;;;;;5068742;28;20039;-77
2022/07/19 05:48:55;;;;;;;19.58;11.07;;;;;;;;;;5070714;28;20028;-77
2022/07/19 05:51:21;;;;;;;20.55;11.65;;;;;;;;;;5071090;28;20040;-77
2022/07/19 05:53:47;;;;;;;18.00;11.10;;;;;;;;;;5064031;28;20028;-78
2022/07/19 05:56:13;;;;;;;22.88;11.43;;;;;;;;;;5055763;28;20029;-76
2022/07/19 05:58:39;;;;;;;19.98;10.00;;;;;;;;;;5058002;28;20078;-78
2022/07/19 06:04:03;;;;;;;18.40;11.77;;;;;;;;;;5031904;28;20386;-76
2022/07/19 06:06:31;;;;;;;19.10;10.50;;;;;;;;;;5054698;28;20060;-77
2022/07/19 06:08:57;;;;;;;16.10;9.52;;;;;;;;;;5054368;28;20035;-76
2022/07/19 06:11:23;;;;;;;15.40;9.18;;;;;;;;;;5053277;28;20024;-75
2022/07/19 06:13:50;;;;;;;21.38;12.45;;;;;;;;;;5054687;28;20426;-76
2022/07/19 06:16:16;;;;;;;23.98;10.30;;;;;;;;;;5053339;28;20041;-76
2022/07/19 06:18:42;;;;;;;16.73;9.15;;;;;;;;;;5055203;28;20033;-77
2022/07/19 06:21:09;;;;;;;15.25;9.43;;;;;;;;;;5056109;28;20079;-77
2022/07/19 06:23:35;;;;;;;19.33;9.55;;;;;;;;;;5061607;28;20020;-77
2022/07/19 06:26:01;;;;;;;19.48;10.13;;;;;;;;;;5054410;28;20616;-77
2022/07/19 06:28:27;;;;;;;17.67;9.55;;;;;;;;;;5053705;28;20096;-76
2022/07/19 06:30:53;;;;;;;16.80;8.10;;;;;;;;;;5056225;28;20504;-80
2022/07/19 06:33:19;;;;;;;18.50;8.23;;;;;;;;;;5052893;28;20045;-77
2022/07/19 06:35:45;;;;;;;14.57;8.43;;;;;;;;;;5055152;28;20040;-76
2022/07/19 06:38:12;;;;;;;18.17;8.43;;;;;;;;;;5056929;28;20060;-76
2022/07/19 06:40:38;;;;;;;12.95;8.13;;;;;;;;;;5055090;28;20120;-76
2022/07/19 06:43:04;;;;;;;17.83;9.75;;;;;;;;;;5057266;28;20041;-76
2022/07/19 06:45:30;;;;;;;16.77;8.70;;;;;;;;;;5054324;28;20025;-78
2022/07/19 06:47:56;;;;;;;17.80;9.50;;;;;;;;;;5055770;28;20029;-77
2022/07/19 06:50:22;;;;;;;20.27;8.30;;;;;;;;;;5054812;28;20025;-77
2022/07/19 06:52:48;;;;;;;21.77;8.07;;;;;;;;;;5054940;28;20045;-77
2022/07/19 06:55:14;;;;;;;16.45;8.05;;;;;;;;;;5056113;28;20147;-76
2022/07/19 06:57:40;;;;;;;15.60;7.70;;;;;;;;;;5054862;28;20049;-77
2022/07/19 07:00:09;;;;;;;17.70;8.20;;;;;;;;;;5056078;28;20028;-77
2022/07/19 07:02:36;;;;;;;23.33;8.23;;;;;;;;;;5057440;28;20031;-78
2022/07/19 07:05:02;;;;;;;13.95;7.82;;;;;;;;;;5056659;28;20087;-76
2022/07/19 07:07:28;;;;;;;20.15;8.45;;;;;;;;;;5057139;28;20025;-77
2022/07/19 07:09:54;;;;;;;18.27;7.88;;;;;;;;;;5055230;28;20075;-76
2022/07/19 07:12:20;;;;;;;15.25;8.35;;;;;;;;;;5056726;28;20039;-76
2022/07/19 07:14:46;;;;;;;13.82;8.88;;;;;;;;;;5055679;28;20474;-77
2022/07/19 07:17:12;;;;;;;24.83;8.15;;;;;;;;;;5055596;28;20028;-76
2022/07/19 07:19:38;;;;;;;22.63;8.75;;;;;;;;;;5055760;28;20473;-77
2022/07/19 07:22:04;;;;;;;17.02;7.45;;;;;;;;;;5055216;28;20516;-77
2022/07/19 07:24:30;;;;;;;18.80;7.32;;;;;;;;;;5055658;28;20021;-75
2022/07/19 07:26:56;;;;;;;16.17;7.43;;;;;;;;;;5059262;28;20246;-77
2022/07/19 07:29:22;;;;;;;17.20;6.72;;;;;;;;;;5059423;28;20029;-75
2022/07/19 07:31:48;;;;;;;15.73;7.70;;;;;;;;;;5054697;28;20025;-75
2022/07/19 07:34:14;;;;;;;13.90;7.18;;;;;;;;;;5055696;28;20036;-75
2022/07/19 07:36:40;;;;;;;13.70;7.30;;;;;;;;;;5054866;28;20025;-77
2022/07/19 07:39:06;;;;;;;11.73;6.95;;;;;;;;;;5061866;28;20029;-77
2022/07/19 07:41:32;;;;;;;11.80;6.97;;;;;;;;;;5061645;28;20028;-76
2022/07/19 07:43:58;;;;;;;14.65;7.28;;;;;;;;;;5057742;28;20029;-77
2022/07/19 07:46:24;;;;;;;14.05;7.25;;;;;;;;;;5056564;28;20066;-77
2022/07/19 07:48:50;;;;;;;14.80;7.53;;;;;;;;;;5062369;28;20029;-78
2022/07/19 07:51:16;;;;;;;18.63;7.78;;;;;;;;;;5060601;28;20033;-75
2022/07/19 07:53:42;;;;;;;16.45;7.25;;;;;;;;;;5069376;28;20056;-77
2022/07/19 07:56:07;;;;;;;11.75;6.70;;;;;;;;;;5067411;28;20029;-77
2022/07/19 07:58:33;;;;;;;18.23;6.93;;;;;;;;;;5068276;28;20044;-76
2022/07/19 08:00:59;;;;;;;17.73;8.07;;;;;;;;;;5070331;28;20631;-76
2022/07/19 08:03:25;;;;;;;11.82;7.47;;;;;;;;;;5074037;28;20024;-75
2022/07/19 08:05:52;;;;;;;14.30;7.00;;;;;;;;;;5073360;28;20152;-77
2022/07/19 08:08:18;;;;;;;13.30;6.75;;;;;;;;;;5065134;28;20029;-76
2022/07/19 08:10:44;;;;;;;13.65;6.93;;;;;;;;;;5062173;28;20032;-77
2022/07/19 08:13:11;;;;;;;12.35;7.07;;;;;;;;;;5061965;28;20082;-77
2022/07/19 08:15:37;;;;;;;16.23;7.45;;;;;;;;;;5061001;28;20446;-77
2022/07/19 08:18:03;;;;;;;15.30;7.93;;;;;;;;;;5059494;28;20047;-77
2022/07/19 08:20:29;;;;;;;17.63;7.40;;;;;;;;;;5059910;28;20517;-77
2022/07/19 08:22:55;;;;;;;12.88;6.43;;;;;;;;;;5065669;28;20078;-77
2022/07/19 08:25:21;;;;;;;13.40;7.93;;;;;;;;;;5059806;28;20021;-76
2022/07/19 08:27:47;;;;;;;15.23;7.50;;;;;;;;;;5062052;28;20387;-78
2022/07/19 08:30:14;;;;;;;19.38;7.05;;;;;;;;;;5058765;28;20091;-77
2022/07/19 08:32:40;;;;;;;14.65;6.30;;;;;;;;;;5058008;28;20025;-76
2022/07/19 08:35:07;;;;;;;16.08;6.68;;;;;;;;;;5057246;28;20097;-77
2022/07/19 08:37:33;;;;;;;12.23;6.90;;;;;;;;;;5062766;28;20055;-76
2022/07/19 08:39:59;;;;;;;14.90;6.72;;;;;;;;;;5062308;28;20033;-76
2022/07/19 08:42:25;;;;;;;19.90;7.00;;;;;;;;;;5058894;28;20048;-76
2022/07/19 08:44:52;;;;;;;10.10;6.47;;;;;;;;;;5057637;28;20481;-77
2022/07/19 08:47:22;;;;;;;16.65;6.35;;;;;;;;;;5058799;28;20025;-77
2022/07/19 08:49:49;;;;;;;10.02;6.38;;;;;;;;;;5058541;28;20111;-77
2022/07/19 08:52:15;;;;;;;14.57;6.78;;;;;;;;;;5058474;28;20040;-76
2022/07/19 08:54:41;;;;;;;13.50;5.93;;;;;;;;;;5055495;28;20103;-77
2022/07/19 08:59:51;;;;;;;;;;;;;;;;;;5056184;28;20036;-77
2022/07/19 09:02:17;;;;;;;15.65;6.20;;;;;;;;;;5056355;28;19905;-77
2022/07/19 09:04:43;;;;;;;12.88;5.88;;;;;;;;;;5057290;28;20021;-77
2022/07/19 09:07:09;;;;;;;14.13;5.82;;;;;;;;;;5061983;28;20092;-76
2022/07/19 09:09:36;;;;;;;12.55;6.10;;;;;;;;;;5063174;28;20107;-78
2022/07/19 09:12:03;;;;;;;16.60;5.95;;;;;;;;;;5059797;28;20025;-77
2022/07/19 09:14:30;;;;;;;14.23;5.63;;;;;;;;;;5058894;28;20086;-78
2022/07/19 09:17:09;;;;;;;10.70;5.72;;;;;;;;;;5063652;28;20013;-74
2022/07/19 09:19:36;;;;;;;11.43;5.88;;;;;;;;;;5066077;28;20041;-77
2022/07/19 09:22:09;;;;;;;14.50;7.75;;;;;;;;;;5058435;28;20544;-77
2022/07/19 09:24:37;;;;;;;11.48;4.95;;;;;;;;;;5056502;28;20033;-76
2022/07/19 09:27:07;;;;;;;10.73;5.13;;;;;;;;;;5061511;28;20060;-77
2022/07/19 09:29:34;;;;;;;13.70;5.72;;;;;;;;;;5060688;28;20021;-75
2022/07/19 09:32:10;;;;;;;15.75;6.00;;;;;;;;;;5055514;28;20025;-77
2022/07/19 09:34:38;;;;;;;11.43;5.75;;;;;;;;;;5055729;28;20501;-77
2022/07/19 09:37:15;;;;;;;14.73;5.25;;;;;;;;;;5054791;28;20446;-77
2022/07/19 09:39:44;;;;;;;15.05;7.10;;;;;;;;;;5056514;28;20047;-76
2022/07/19 09:42:10;;;;;;;17.13;5.53;;;;;;;;;;5058242;28;20028;-76
2022/07/19 09:44:36;;;;;;;21.48;5.95;;;;;;;;;;5059087;28;20036;-77
2022/07/19 09:47:03;;;;;;;12.45;5.38;;;;;;;;;;5056210;28;20405;-77
2022/07/19 09:49:29;;;;;;;14.88;5.43;;;;;;;;;;5056750;28;20508;-77
2022/07/19 09:51:55;;;;;;;8.85;5.28;;;;;;;;;;5056037;28;20100;-78
2022/07/19 09:54:22;;;;;;;12.43;5.78;;;;;;;;;;5054930;28;20536;-77
2022/07/19 09:56:50;;;;;;;22.67;6.15;;;;;;;;;;5059216;28;20037;-78
2022/07/19 09:59:16;;;;;;;20.45;5.80;;;;;;;;;;5056234;28;20017;-77
2022/07/19 10:01:43;;;;;;;10.68;5.40;;;;;;;;;;5065044;28;20025;-77
2022/07/19 10:04:10;;;;;;;11.45;5.35;;;;;;;;;;5068911;28;20016;-77
2022/07/19 10:06:37;;;;;;;10.25;4.90;;;;;;;;;;5064245;28;20029;-78
2022/07/19 10:09:04;;;;;;;12.32;5.35;;;;;;;;;;5059052;28;20482;-76
2022/07/19 10:11:31;;;;;;;9.75;5.10;;;;;;;;;;5056128;28;20515;-77
2022/07/19 10:13:57;;;;;;;14.80;5.20;;;;;;;;;;5066945;28;20029;-77
2022/07/19 10:16:36;;;;;;;19.40;10.30;;;;;;;;;;5066027;28;20029;-77
2022/07/19 10:19:03;;;;;;;15.88;5.38;;;;;;;;;;5064922;28;20508;-76
2022/07/19 10:21:30;;;;;;;17.00;6.72;;;;;;;;;;5065019;28;20068;-77
2022/07/19 10:23:56;;;;;;;10.75;4.90;;;;;;;;;;5066772;28;20014;-77
2022/07/19 10:26:34;;;;;;;10.93;5.35;;;;;;;;;;5066462;28;20043;-77
2022/07/19 10:29:09;;;;;;;9.05;5.50;;;;;;;;;;5068035;28;20059;-79
2022/07/19 10:31:35;;;;;;;11.18;5.15;;;;;;;;;;5067276;28;20073;-78
2022/07/19 10:34:03;;;;;;;13.23;5.00;;;;;;;;;;5069342;28;20053;-79
2022/07/19 10:36:39;;;;;;;9.85;4.50;;;;;;;;;;5059648;28;20025;-78
2022/07/19 10:39:26;;;;;;;10.48;4.38;;;;;;;;;;5064547;28;20486;-77
2022/07/19 10:42:06;;;;;;;7.18;4.15;;;;;;;;;;5060095;28;20050;-78
2022/07/19 10:44:33;;;;;;;7.40;3.78;;;;;;;;;;5061406;28;20088;-77
2022/07/19 10:46:59;;;;;;;7.03;3.95;;;;;;;;;;5066130;28;20092;-78
2022/07/19 10:49:44;;;;;;;6.20;3.63;;;;;;;;;;5061722;28;20036;-78
2022/07/19 10:52:28;;;;;;;6.38;4.00;;;;;;;;;;5064375;28;20028;-79
2022/07/19 10:55:13;;;;;;;8.95;4.07;;;;;;;;;;5053930;28;20025;-77
2022/07/19 10:57:39;;;;;;;12.98;3.72;;;;;;;;;;5053596;28;20032;-77
2022/07/19 11:00:23;;;;;;;7.43;4.28;;;;;;;;;;5056334;28;20405;-77
2022/07/19 11:02:51;;;;;;;11.13;4.10;;;;;;;;;;5053527;28;20024;-77
2022/07/19 11:05:23;;;;;;;12.15;4.40;;;;;;;;;;5058481;28;20037;-77
2022/07/19 11:07:51;;;;;;;8.45;3.72;;;;;;;;;;5056015;28;20063;-77
2022/07/19 11:10:27;;;;;;;10.75;3.58;;;;;;;;;;5053967;28;20025;-77
2022/07/19 11:12:54;;;;;;;8.52;4.18;;;;;;;;;;5055647;28;20121;-78
2022/07/19 11:15:20;;;;;;;14.52;4.15;;;;;;;;;;5053828;28;20028;-77
2022/07/19 11:17:57;;;;;;;6.18;3.92;;;;;;;;;;5077201;22;21127;-81
2022/07/19 11:20:24;;;;;;;12.48;4.00;;;;;;;;;;5054865;28;20044;-80
2022/07/19 11:22:50;;;;;;;7.18;3.80;;;;;;;;;;5055071;28;20049;-80
2022/07/19 11:25:16;;;;;;;8.57;3.70;;;;;;;;;;5077425;28;20025;-79
2022/07/19 11:27:43;;;;;;;8.88;4.50;;;;;;;;;;5062918;28;20031;-78
2022/07/19 11:30:10;;;;;;;8.68;4.68;;;;;;;;;;5072665;28;20104;-79
2022/07/19 11:32:36;;;;;;;7.95;5.10;;;;;;;;;;5053999;28;20024;-78
2022/07/19 11:35:05;;;;;;;5.70;3.75;;;;;;;;;;5054460;28;20021;-78
2022/07/19 11:37:32;;;;;;;4.90;3.38;;;;;;;;;;5043168;28;20040;-78
2022/07/19 11:39:58;;;;;;;5.75;3.50;;;;;;;;;;5024176;28;20024;-80
2022/07/19 11:42:37;;;;;;;7.43;3.90;;;;;;;;;;5044483;28;20013;-78
2022/07/19 11:45:20;;;;;;;9.65;4.82;;;;;;;;;;5051351;28;20473;-79
2022/07/19 11:47:52;;;;;;;7.60;3.65;;;;;;;;;;5042042;28;20086;-77
2022/07/19 11:50:20;;;;;;;5.43;3.50;;;;;;;;;;5058842;28;20604;-79
2022/07/19 11:52:49;;;;;;;7.90;4.25;;;;;;;;;;5074852;28;20417;-79
2022/07/19 11:55:16;;;;;;;5.82;3.95;;;;;;;;;;5060208;28;20025;-77
2022/07/19 11:57:42;;;;;;;11.80;3.63;;;;;;;;;;5072419;28;20036;-79
2022/07/19 12:00:10;;;;;;;7.28;3.42;;;;;;;;;;5076848;28;20048;-79
2022/07/19 12:02:58;;;;;;;5.80;3.30;;;;;;;;;;5045842;28;20047;-79
2022/07/19 12:05:25;;;;;;;7.43;3.30;;;;;;;;;;5028221;28;20025;-79
2022/07/19 12:07:52;;;;;;;4.82;2.97;;;;;;;;;;5053165;28;20428;-82
2022/07/19 12:10:33;;;;;;;8.07;3.30;;;;;;;;;;5063723;28;20020;-79
2022/07/19 12:13:00;;;;;;;5.00;3.15;;;;;;;;;;5077983;28;20108;-78
2022/07/19 12:15:26;;;;;;;9.98;3.40;;;;;;;;;;5037019;28;20079;-78
2022/07/19 12:17:56;;;;;;;9.55;3.92;;;;;;;;;;5055118;28;20446;-77
2022/07/19 12:20:22;;;;;;;11.43;3.60;;;;;;;;;;5055113;28;20100;-78
2022/07/19 12:22:48;;;;;;;7.72;3.38;;;;;;;;;;5055115;28;20063;-78
2022/07/19 12:25:14;;;;;;;8.65;3.80;;;;;;;;;;5056597;28;20021;-79
2022/07/19 12:27:40;;;;;;;8.75;3.53;;;;;;;;;;5056241;28;20074;-77
2022/07/19 12:30:07;;;;;;;12.68;4.00;;;;;;;;;;5055934;28;20064;-77
2022/07/19 12:32:34;;;;;;;8.68;4.80;;;;;;;;;;5056232;28;20047;-77
2022/07/19 12:35:05;;;;;;;11.00;3.55;;;;;;;;;;5056348;28;20035;-77
2022/07/19 12:37:35;;;;;;;5.75;3.83;;;;;;;;;;5055346;28;20052;-78
2022/07/19 12:40:11;;;;;;;9.45;3.42;;;;;;;;;;5056106;28;20084;-78
2022/07/19 12:42:38;;;;;;;7.18;2.95;;;;;;;;;;5038244;28;20036;-77
2022/07/19 12:45:05;;;;;;;7.70;3.28;;;;;;;;;;5042330;28;20017;-79
2022/07/19 12:47:31;;;;;;;5.80;3.10;;;;;;;;;;5058163;28;20055;-78
2022/07/19 12:49:57;;;;;;;9.13;3.22;;;;;;;;;;5059371;28;20032;-77
2022/07/19 12:52:23;;;;;;;5.43;3.50;;;;;;;;;;5044278;28;20028;-77
2022/07/19 12:54:49;;;;;;;6.40;2.75;;;;;;;;;;5057068;28;20087;-78
2022/07/19 12:57:15;;;;;;;4.57;2.92;;;;;;;;;;5055424;28;20025;-78
2022/07/19 12:59:41;;;;;;;19.42;3.35;;;;;;;;;;5054452;28;20035;-77
2022/07/19 13:02:12;;;;;;;4.70;2.60;;;;;;;;;;5054532;28;20067;-77
2022/07/19 13:04:39;;;;;;;11.00;2.22;;;;;;;;;;5054376;28;20029;-77
2022/07/19 13:07:06;;;;;;;4.47;2.53;;;;;;;;;;5037140;28;20017;-77
2022/07/19 13:09:32;;;;;;;6.88;3.33;;;;;;;;;;5054330;28;20051;-78
2022/07/19 13:11:59;;;;;;;11.20;2.28;;;;;;;;;;5037337;28;20052;-78
2022/07/19 13:14:25;;;;;;;3.40;2.17;;;;;;;;;;5055507;28;20025;-78
2022/07/19 13:16:51;;;;;;;8.60;2.38;;;;;;;;;;5053830;28;20028;-78
2022/07/19 13:19:17;;;;;;;4.47;2.60;;;;;;;;;;5053799;28;20481;-77
2022/07/19 13:21:43;;;;;;;6.78;2.50;;;;;;;;;;5036180;28;20028;-77
2022/07/19 13:24:09;;;;;;;8.57;2.72;;;;;;;;;;5054518;28;20433;-79
2022/07/19 13:26:36;;;;;;;7.38;2.40;;;;;;;;;;5054306;28;20067;-79
2022/07/19 13:29:02;;;;;;;4.22;2.80;;;;;;;;;;5053867;28;20478;-77
2022/07/19 13:31:27;;;;;;;8.02;3.70;;;;;;;;;;5035869;28;20052;-77
2022/07/19 13:33:53;;;;;;;9.98;3.60;;;;;;;;;;5054294;28;20431;-77
2022/07/19 13:36:19;;;;;;;7.55;2.85;;;;;;;;;;5054234;28;20052;-77
2022/07/19 13:38:47;;;;;;;8.43;3.00;;;;;;;;;;5053960;28;20068;-78
2022/07/19 13:41:13;;;;;;;6.28;2.80;;;;;;;;;;5054181;28;20024;-77
2022/07/19 13:43:39;;;;;;;7.63;3.47;;;;;;;;;;5036457;28;20025;-78
2022/07/19 13:46:05;;;;;;;7.65;3.00;;;;;;;;;;5057697;28;20409;-78
2022/07/19 13:48:31;;;;;;;9.55;3.10;;;;;;;;;;5055666;28;20074;-80
2022/07/19 13:50:57;;;;;;;10.68;3.15;;;;;;;;;;5057794;28;20029;-80
2022/07/19 13:53:23;;;;;;;6.28;4.25;;;;;;;;;;5063051;28;20025;-79
2022/07/19 13:55:49;;;;;;;12.82;6.70;;;;;;;;;;5057346;28;20082;-78
2022/07/19 13:58:15;;;;;;;12.48;3.50;;;;;;;;;;5055379;28;20021;-79
2022/07/19 14:00:46;;;;;;;7.18;3.20;;;;;;;;;;5053042;28;20100;-78
2022/07/19 14:03:13;;;;;;;9.48;3.22;;;;;;;;;;5053981;28;20090;-78
2022/07/19 14:05:39;;;;;;;10.68;3.20;;;;;;;;;;5054889;28;20013;-78
2022/07/19 14:08:05;;;;;;;5.25;3.33;;;;;;;;;;5054681;28;20104;-78
2022/07/19 14:10:31;;;;;;;11.23;3.60;;;;;;;;;;5056175;28;20028;-77
2022/07/19 14:12:57;;;;;;;8.98;5.13;;;;;;;;;;5056134;28;20604;-77
2022/07/19 14:15:23;;;;;;;7.47;3.88;;;;;;;;;;5054350;28;20128;-76
2022/07/19 14:17:49;;;;;;;8.90;4.97;;;;;;;;;;5056160;28;20041;-77
2022/07/19 14:20:15;;;;;;;4.93;3.45;;;;;;;;;;5035608;28;20021;-77
2022/07/19 14:22:41;;;;;;;9.02;3.45;;;;;;;;;;5053331;28;20543;-76
2022/07/19 14:25:07;;;;;;;12.50;5.85;;;;;;;;;;5053275;28;20025;-77
2022/07/19 14:27:33;;;;;;;7.75;3.88;;;;;;;;;;5052667;28;20139;-79
2022/07/19 14:29:59;;;;;;;6.40;3.05;;;;;;;;;;5053382;28;20025;-79
2022/07/19 14:32:25;;;;;;;11.50;3.72;;;;;;;;;;5052985;28;20040;-76
2022/07/19 14:34:51;;;;;;;9.02;4.60;;;;;;;;;;5053013;28;20036;-77